Time;durP1;ratioP1;P1;durP2;ratioP2;P2;SDS_P1;SDS_P2;PMS_P1;PMS_P2;Temp;Humidity;BMP_temperature;BMP_pressure;BME280_temperature;BME280_humidity;BME280_pressure;Samples;Min_cycle;Max_cycle;Signal;HPM_P1;HPM_P2
2021/12/06 00:01:51;;;;;;;190.15;91.90;;;5.60;99.90;;;;;;5034474;28;20045;-80
2021/12/06 00:04:22;;;;;;;160.48;78.78;;;5.70;99.90;;;;;;5054508;28;20451;-79
2021/12/06 00:06:54;;;;;;;171.07;84.82;;;5.70;99.90;;;;;;5033158;28;20045;-79
2021/12/06 00:09:25;;;;;;;163.43;80.40;;;5.60;99.90;;;;;;5036817;28;20048;-80
2021/12/06 00:11:57;;;;;;;145.60;70.50;;;5.60;99.90;;;;;;5054471;28;20033;-79
2021/12/06 00:14:28;;;;;;;167.15;82.43;;;5.60;99.90;;;;;;5055960;28;20036;-80
2021/12/06 00:16:55;;;;;;;154.73;73.20;;;5.50;99.90;;;;;;5054826;28;20064;-80
2021/12/06 00:19:23;;;;;;;165.30;78.18;;;5.50;99.90;;;;;;5036628;28;20052;-78
2021/12/06 00:21:51;;;;;;;172.48;79.63;;;5.30;99.90;;;;;;5056983;28;20473;-79
2021/12/06 00:24:19;;;;;;;169.10;76.57;;;5.30;99.90;;;;;;5020594;28;20052;-79
2021/12/06 00:26:48;;;;;;;151.93;66.25;;;5.30;99.90;;;;;;5035691;28;20037;-79
2021/12/06 00:29:16;;;;;;;146.48;66.05;;;5.30;99.90;;;;;;5016654;28;20045;-79
2021/12/06 00:31:43;;;;;;;141.02;66.93;;;5.40;99.90;;;;;;5028641;28;20045;-79
2021/12/06 00:34:15;;;;;;;140.88;64.72;;;5.50;99.90;;;;;;5058384;28;20045;-81
2021/12/06 00:36:52;;;;;;;138.43;66.97;;;5.70;99.90;;;;;;5041513;28;20056;-79
2021/12/06 00:39:22;;;;;;;138.88;67.97;;;5.70;99.90;;;;;;5056864;28;20102;-80
2021/12/06 00:41:51;;;;;;;128.18;68.57;;;5.70;99.90;;;;;;5054154;28;20053;-80
2021/12/06 00:44:18;;;;;;;136.65;68.55;;;5.70;99.90;;;;;;5053030;28;20049;-78
2021/12/06 00:46:45;;;;;;;137.13;70.95;;;5.80;99.90;;;;;;5052391;28;20068;-78
2021/12/06 00:49:13;;;;;;;127.55;68.55;;;5.90;99.90;;;;;;5055219;28;20135;-78
2021/12/06 00:51:41;;;;;;;126.35;68.25;;;6.00;99.90;;;;;;5054639;28;20049;-78
2021/12/06 00:54:09;;;;;;;142.63;74.88;;;6.00;99.90;;;;;;5054621;28;20055;-78
2021/12/06 00:56:38;;;;;;;135.20;69.43;;;6.00;99.90;;;;;;5054587;28;20039;-78
2021/12/06 00:59:08;;;;;;;142.02;70.93;;;6.00;99.90;;;;;;5036340;28;20080;-78
2021/12/06 01:01:36;;;;;;;135.82;69.03;;;6.00;99.90;;;;;;5054076;28;20048;-78
2021/12/06 01:04:05;;;;;;;139.82;71.57;;;6.00;99.90;;;;;;5036614;28;20132;-80
2021/12/06 01:06:33;;;;;;;133.85;72.80;;;6.00;99.90;;;;;;5053874;28;20045;-79
2021/12/06 01:09:00;;;;;;;134.70;70.07;;;6.10;99.90;;;;;;5053822;28;20416;-79
2021/12/06 01:11:28;;;;;;;142.85;72.53;;;6.10;99.90;;;;;;5036141;28;20045;-80
2021/12/06 01:13:55;;;;;;;159.00;81.72;;;6.10;99.90;;;;;;5036370;28;20094;-80
2021/12/06 01:16:25;;;;;;;150.20;79.93;;;6.10;99.90;;;;;;5044378;28;20044;-81
2021/12/06 01:18:52;;;;;;;143.85;77.15;;;6.20;99.90;;;;;;5056050;28;20045;-83
2021/12/06 01:21:26;;;;;;;139.35;71.38;;;6.30;99.90;;;;;;5062907;28;20061;-82
2021/12/06 01:23:58;;;;;;;156.43;80.75;;;6.30;99.90;;;;;;5026529;28;20413;-80
2021/12/06 01:26:44;;;;;;;153.65;83.35;;;6.40;99.90;;;;;;5030206;28;20044;-80
2021/12/06 01:29:43;;;;;;;159.60;85.47;;;6.40;99.90;;;;;;5032802;28;20048;-82
2021/12/06 01:32:22;;;;;;;154.05;78.85;;;6.40;99.90;;;;;;5053347;28;20036;-79
2021/12/06 01:40:21;;;;;;;141.25;75.03;;;6.40;99.90;;;;;;5031012;28;20033;-78
2021/12/06 01:42:49;;;;;;;141.55;73.95;;;6.40;99.90;;;;;;5057449;28;20116;-81
2021/12/06 01:45:18;;;;;;;146.65;78.07;;;6.40;99.90;;;;;;5015979;28;20088;-79
2021/12/06 01:47:48;;;;;;;151.05;77.07;;;6.40;99.90;;;;;;5009070;28;20046;-79
2021/12/06 01:50:23;;;;;;;144.75;76.15;;;6.40;99.90;;;;;;5016570;28;20081;-78
2021/12/06 01:52:54;;;;;;;124.57;69.22;;;6.40;99.90;;;;;;5016095;28;20100;-78
2021/12/06 01:55:25;;;;;;;112.95;64.35;;;6.40;99.90;;;;;;5016169;28;20509;-79
2021/12/06 01:57:54;;;;;;;114.72;62.45;;;6.40;99.90;;;;;;5016366;28;20050;-78
2021/12/06 02:00:26;;;;;;;117.68;66.50;;;6.40;99.90;;;;;;5015977;28;20052;-79
2021/12/06 02:03:01;;;;;;;114.05;64.53;;;6.40;99.90;;;;;;5016562;28;20060;-79
2021/12/06 02:05:39;;;;;;;105.82;60.58;;;6.40;99.90;;;;;;5016383;28;20143;-79
2021/12/06 02:08:09;;;;;;;109.95;61.65;;;6.40;99.90;;;;;;5017559;28;20061;-81
2021/12/06 02:10:37;;;;;;;101.47;58.85;;;6.40;99.90;;;;;;5024545;28;20081;-79
2021/12/06 02:13:09;;;;;;;88.65;54.92;;;6.40;99.90;;;;;;5017604;28;20034;-79
2021/12/06 02:15:42;;;;;;;89.45;52.13;;;6.40;99.90;;;;;;5016966;28;20501;-79
2021/12/06 02:18:28;;;;;;;86.82;51.67;;;6.50;99.90;;;;;;5015738;28;20563;-80
2021/12/06 02:21:09;;;;;;;69.53;42.35;;;6.40;99.90;;;;;;5013576;28;20050;-78
2021/12/06 02:23:36;;;;;;;75.05;44.78;;;6.40;99.90;;;;;;5015679;28;20624;-79
2021/12/06 02:26:04;;;;;;;67.65;41.40;;;6.30;99.90;;;;;;5015176;28;20049;-79
2021/12/06 02:28:31;;;;;;;66.57;39.70;;;6.40;99.90;;;;;;5015364;28;20069;-77
2021/12/06 02:31:00;;;;;;;62.30;38.15;;;6.40;99.90;;;;;;5015057;28;20525;-79
2021/12/06 02:33:28;;;;;;;63.65;38.95;;;6.40;99.90;;;;;;5015167;28;20049;-79
2021/12/06 02:35:57;;;;;;;62.10;38.45;;;6.50;99.90;;;;;;5016047;28;20435;-80
2021/12/06 02:38:24;;;;;;;62.30;38.70;;;6.50;99.90;;;;;;5015056;28;20433;-79
2021/12/06 02:40:52;;;;;;;66.80;40.78;;;6.40;99.90;;;;;;5016188;28;20048;-79
2021/12/06 02:43:20;;;;;;;54.65;35.85;;;6.40;99.90;;;;;;5018831;28;20092;-79
2021/12/06 02:45:48;;;;;;;54.60;34.40;;;6.40;99.90;;;;;;5034519;28;20081;-79
2021/12/06 02:48:15;;;;;;;56.72;35.15;;;6.40;99.90;;;;;;5034606;28;20045;-79
2021/12/06 02:50:46;;;;;;;50.30;33.70;;;6.40;99.90;;;;;;5035141;28;20042;-79
2021/12/06 02:53:47;;;;;;;48.95;32.38;;;6.40;99.90;;;;;;5034928;28;20042;-80
2021/12/06 02:56:30;;;;;;;53.78;33.00;;;6.40;99.90;;;;;;5016566;28;20046;-79
2021/12/06 02:59:00;;;;;;;46.13;31.60;;;6.30;99.90;;;;;;5015837;28;20552;-79
2021/12/06 03:01:33;;;;;;;43.22;29.70;;;6.30;99.90;;;;;;5021714;28;20041;-79
2021/12/06 03:04:02;;;;;;;44.28;31.73;;;6.40;99.90;;;;;;5034558;28;20038;-78
2021/12/06 03:06:31;;;;;;;46.20;32.42;;;6.30;99.90;;;;;;5034564;28;20461;-79
2021/12/06 03:09:06;;;;;;;45.83;32.72;;;6.30;99.90;;;;;;5034523;28;20124;-79
2021/12/06 03:11:36;;;;;;;50.22;34.95;;;6.30;99.90;;;;;;5035071;28;20432;-79
2021/12/06 03:14:03;;;;;;;47.72;33.30;;;6.30;99.90;;;;;;5021231;28;20132;-81
2021/12/06 03:16:32;;;;;;;45.88;32.33;;;6.40;99.90;;;;;;5022485;28;20137;-82
2021/12/06 03:19:01;;;;;;;48.85;33.45;;;6.30;99.90;;;;;;5035933;28;20103;-82
2021/12/06 03:21:29;;;;;;;45.50;31.48;;;6.30;99.90;;;;;;5035237;28;20087;-80
2021/12/06 03:24:00;;;;;;;44.88;31.67;;;6.30;99.90;;;;;;5035102;28;20037;-79
2021/12/06 03:26:30;;;;;;;47.35;33.25;;;6.10;98.70;;;;;;5035017;28;20053;-79
2021/12/06 03:28:58;;;;;;;45.28;32.00;;;6.10;99.90;;;;;;5034275;28;20420;-80
2021/12/06 03:31:26;;;;;;;49.95;32.47;;;6.10;99.90;;;;;;5027073;28;20497;-79
2021/12/06 03:33:57;;;;;;;42.28;30.60;;;6.20;99.90;;;;;;5027577;28;20490;-81
2021/12/06 03:36:26;;;;;;;34.88;26.83;;;6.20;99.90;;;;;;5035293;28;20061;-78
2021/12/06 03:38:56;;;;;;;32.55;22.23;;;6.20;99.90;;;;;;5043300;28;20052;-80
2021/12/06 03:41:28;;;;;;;29.40;19.05;;;6.20;99.90;;;;;;5040748;28;20056;-79
2021/12/06 03:43:57;;;;;;;22.65;16.48;;;6.10;96.60;;;;;;5033545;28;20049;-79
2021/12/06 03:46:28;;;;;;;20.33;14.52;;;6.10;99.90;;;;;;5033536;28;20052;-79
2021/12/06 03:48:56;;;;;;;20.20;13.85;;;6.00;93.80;;;;;;5033950;28;20049;-79
2021/12/06 03:51:24;;;;;;;15.70;10.63;;;6.10;99.90;;;;;;5033818;28;20402;-79
2021/12/06 03:53:54;;;;;;;14.32;11.10;;;6.10;20.50;;;;;;5033707;28;20045;-80
2021/12/06 03:56:22;;;;;;;13.15;9.88;;;6.10;25.90;;;;;;5035357;28;20045;-79
2021/12/06 03:58:51;;;;;;;11.85;8.48;;;6.10;1.00;;;;;;5033991;28;20049;-78
2021/12/06 04:01:19;;;;;;;11.27;8.18;;;6.10;1.00;;;;;;5013704;28;20169;-78
2021/12/06 04:03:47;;;;;;;10.35;7.88;;;6.20;1.00;;;;;;5013708;28;20042;-79
2021/12/06 04:06:15;;;;;;;10.30;7.60;;;6.20;1.00;;;;;;5013578;28;20078;-78
2021/12/06 04:08:43;;;;;;;8.23;6.47;;;6.20;99.90;;;;;;5015120;28;20045;-78
2021/12/06 04:11:13;;;;;;;10.10;5.65;;;6.20;1.00;;;;;;5033409;28;20092;-79
2021/12/06 04:13:40;;;;;;;7.20;5.47;;;6.10;99.90;;;;;;5033835;28;20069;-79
2021/12/06 04:16:09;;;;;;;8.23;5.85;;;6.20;99.90;;;;;;5034011;28;20499;-80
2021/12/06 04:18:39;;;;;;;7.60;5.30;;;6.10;57.10;;;;;;5033173;28;20049;-80
2021/12/06 04:21:09;;;;;;;7.80;5.93;;;6.10;1.00;;;;;;5033405;28;20049;-78
2021/12/06 04:23:38;;;;;;;7.60;5.40;;;6.00;1.00;;;;;;5033993;28;20037;-78
2021/12/06 04:26:07;;;;;;;7.30;5.25;;;6.00;1.00;;;;;;5035855;28;20072;-79
2021/12/06 04:28:36;;;;;;;7.95;5.20;;;5.90;1.00;;;;;;5037703;28;20049;-78
2021/12/06 04:31:05;;;;;;;7.10;5.65;;;5.90;1.00;;;;;;5031844;28;20054;-79
2021/12/06 04:33:34;;;;;;;7.32;5.15;;;5.80;99.90;;;;;;5031384;28;20052;-78
2021/12/06 04:36:02;;;;;;;7.72;5.90;;;5.80;99.90;;;;;;5032973;28;20041;-79
2021/12/06 04:38:31;;;;;;;8.10;6.07;;;5.80;99.90;;;;;;5032923;28;20052;-79
2021/12/06 04:41:03;;;;;;;9.18;6.35;;;5.90;1.00;;;;;;5032842;28;20045;-79
2021/12/06 04:43:31;;;;;;;8.73;5.65;;;5.90;99.90;;;;;;5039945;28;20056;-78
2021/12/06 04:45:59;;;;;;;9.85;5.28;;;5.90;1.00;;;;;;5035877;28;20059;-79
2021/12/06 04:48:27;;;;;;;6.70;4.60;;;5.90;99.90;;;;;;5035728;28;20045;-81
2021/12/06 04:50:57;;;;;;;6.65;4.47;;;5.80;99.90;;;;;;5053924;28;20053;-78
2021/12/06 04:53:35;;;;;;;6.32;4.30;;;5.80;1.00;;;;;;5055092;28;20103;-79
2021/12/06 04:56:11;;;;;;;5.43;3.90;;;5.90;1.00;;;;;;5050280;28;20412;-79
2021/12/06 04:58:46;;;;;;;7.05;3.80;;;5.90;99.90;;;;;;5040625;28;20049;-81
2021/12/06 05:01:18;;;;;;;7.38;4.03;;;5.90;85.40;;;;;;5040296;28;20421;-78
2021/12/06 05:03:46;;;;;;;5.57;3.83;;;5.90;1.00;;;;;;5066425;28;20044;-81
2021/12/06 05:06:19;;;;;;;5.60;3.85;;;6.00;1.00;;;;;;5055872;28;20120;-81
2021/12/06 05:08:50;;;;;;;4.93;3.22;;;5.90;1.00;;;;;;5073637;28;20139;-80
2021/12/06 05:11:20;;;;;;;9.02;4.50;;;5.90;99.90;;;;;;5052705;28;20051;-83
2021/12/06 05:13:51;;;;;;;5.65;3.67;;;5.90;99.90;;;;;;5052908;28;20044;-82
2021/12/06 05:16:21;;;;;;;5.80;3.85;;;5.90;99.90;;;;;;5052918;28;20463;-81
2021/12/06 05:18:49;;;;;;;8.68;4.45;;;5.90;1.00;;;;;;5052429;28;20120;-82
2021/12/06 05:21:18;;;;;;;10.23;4.85;;;6.00;1.00;;;;;;5042910;28;20068;-81
2021/12/06 05:23:47;;;;;;;7.03;5.10;;;6.00;1.00;;;;;;5040923;28;20037;-79
2021/12/06 05:26:14;;;;;;;6.40;4.45;;;6.00;1.00;;;;;;5041198;28;20048;-79
2021/12/06 05:28:44;;;;;;;5.90;3.97;;;6.00;1.00;;;;;;5042071;28;20075;-79
2021/12/06 05:31:17;;;;;;;8.88;6.10;;;6.00;1.00;;;;;;5042241;28;20516;-79
2021/12/06 05:33:46;;;;;;;8.25;5.85;;;6.00;1.00;;;;;;5040559;28;20488;-79
2021/12/06 05:36:16;;;;;;;10.20;6.68;;;6.00;1.00;;;;;;5041511;28;20099;-81
2021/12/06 05:38:45;;;;;;;9.88;5.72;;;6.00;99.90;;;;;;5041795;28;20045;-78
2021/12/06 05:41:12;;;;;;;14.75;10.80;;;6.00;99.90;;;;;;5060572;28;20060;-80
2021/12/06 05:43:40;;;;;;;10.85;7.18;;;5.90;10.90;;;;;;5058892;28;20048;-80
2021/12/06 05:46:08;;;;;;;7.32;5.30;;;5.90;43.50;;;;;;5047686;28;20048;-78
2021/12/06 05:48:35;;;;;;;10.70;6.43;;;5.90;1.00;;;;;;5058683;28;20055;-79
2021/12/06 05:51:03;;;;;;;9.63;5.57;;;5.90;1.00;;;;;;5040903;28;20519;-79
2021/12/06 05:53:31;;;;;;;11.18;7.13;;;5.90;1.00;;;;;;5038319;28;20131;-78
2021/12/06 05:56:00;;;;;;;10.43;7.40;;;5.90;1.00;;;;;;5051055;28;20041;-81
2021/12/06 05:58:28;;;;;;;8.02;6.00;;;5.90;1.00;;;;;;5059858;28;20044;-79
2021/12/06 06:00:56;;;;;;;8.05;5.50;;;5.90;1.00;;;;;;5042959;28;20528;-79
2021/12/06 06:03:24;;;;;;;6.22;4.65;;;5.90;1.00;;;;;;5041765;28;20041;-78
2021/12/06 06:05:52;;;;;;;9.05;6.22;;;5.90;1.00;;;;;;5060053;28;20036;-79
2021/12/06 06:08:20;;;;;;;10.30;7.18;;;5.90;99.90;;;;;;5059014;28;20455;-80
2021/12/06 06:10:50;;;;;;;10.57;7.25;;;5.80;99.90;;;;;;5058314;28;20041;-79
2021/12/06 06:13:20;;;;;;;7.32;6.13;;;5.80;99.90;;;;;;5059641;28;20052;-79
2021/12/06 06:15:50;;;;;;;9.07;6.38;;;5.90;99.90;;;;;;5041139;28;20041;-80
2021/12/06 06:18:18;;;;;;;12.20;7.80;;;5.90;99.90;;;;;;5038715;28;20046;-79
2021/12/06 06:20:49;;;;;;;9.70;7.63;;;5.90;99.90;;;;;;5041655;28;20508;-81
2021/12/06 06:23:17;;;;;;;11.13;8.93;;;5.90;93.20;;;;;;5042868;28;20484;-80
2021/12/06 06:25:45;;;;;;;11.85;9.38;;;5.90;99.90;;;;;;5035181;28;20497;-80
2021/12/06 06:28:12;;;;;;;10.95;8.73;;;5.90;99.90;;;;;;5059598;28;20064;-78
2021/12/06 06:30:41;;;;;;;9.93;7.72;;;6.00;99.90;;;;;;5057780;28;20041;-79
2021/12/06 06:33:10;;;;;;;9.02;7.00;;;5.90;1.00;;;;;;5056002;28;20037;-79
2021/12/06 06:35:37;;;;;;;11.02;8.10;;;5.90;1.00;;;;;;5057193;28;20049;-79
2021/12/06 06:38:05;;;;;;;13.60;9.50;;;5.90;1.00;;;;;;5057869;28;20124;-79
2021/12/06 06:40:32;;;;;;;14.20;9.85;;;5.90;1.00;;;;;;5057449;28;20041;-80
2021/12/06 06:43:00;;;;;;;11.93;9.27;;;5.80;1.00;;;;;;5039886;28;20649;-80
2021/12/06 06:45:28;;;;;;;11.70;9.70;;;5.80;1.00;;;;;;5064789;28;20049;-81
2021/12/06 06:47:57;;;;;;;12.63;9.95;;;5.70;1.00;;;;;;5058827;28;20086;-79
2021/12/06 06:50:25;;;;;;;16.13;11.27;;;5.70;1.00;;;;;;5030790;28;20448;-81
2021/12/06 06:52:53;;;;;;;16.30;10.77;;;5.70;99.90;;;;;;5050802;28;20056;-78
2021/12/06 06:55:22;;;;;;;35.17;13.10;;;5.70;99.90;;;;;;5056671;28;20056;-81
2021/12/06 06:57:51;;;;;;;15.20;12.00;;;5.80;36.20;;;;;;5041299;28;20068;-77
2021/12/06 07:00:21;;;;;;;17.85;12.27;;;5.80;1.00;;;;;;5057679;28;20400;-79
2021/12/06 07:02:48;;;;;;;22.98;13.98;;;5.70;1.00;;;;;;5045504;28;20063;-80
2021/12/06 07:05:18;;;;;;;16.88;13.15;;;5.70;1.00;;;;;;5071003;28;20033;-79
2021/12/06 07:07:45;;;;;;;19.70;12.95;;;5.70;1.00;;;;;;5061950;28;20069;-81
2021/12/06 07:10:13;;;;;;;17.98;12.82;;;5.70;1.00;;;;;;5077353;28;20041;-81
2021/12/06 07:12:45;;;;;;;21.27;13.82;;;5.70;1.00;;;;;;5072552;28;20049;-80
2021/12/06 07:15:14;;;;;;;18.80;13.50;;;5.70;1.00;;;;;;5057322;28;20033;-81
2021/12/06 07:17:43;;;;;;;16.63;12.80;;;5.80;1.00;;;;;;5057607;28;20052;-82
2021/12/06 07:20:13;;;;;;;16.23;13.02;;;5.80;1.00;;;;;;5057694;28;20056;-79
2021/12/06 07:22:42;;;;;;;20.50;14.55;;;5.70;1.00;;;;;;5073137;28;20068;-79
2021/12/06 07:25:11;;;;;;;20.77;15.52;;;5.70;1.00;;;;;;5075506;28;20086;-79
2021/12/06 07:27:39;;;;;;;25.60;20.00;;;5.70;1.00;;;;;;5059164;28;20045;-80
2021/12/06 07:30:09;;;;;;;17.05;13.80;;;5.80;1.00;;;;;;5076029;28;20049;-79
2021/12/06 07:32:36;;;;;;;18.70;14.07;;;5.80;23.10;;;;;;5070826;28;20060;-81
2021/12/06 07:35:05;;;;;;;19.63;14.70;;;5.90;1.00;;;;;;5058458;28;20108;-80
2021/12/06 07:37:32;;;;;;;22.13;15.60;;;5.80;1.00;;;;;;5075159;28;20041;-81
2021/12/06 07:40:02;;;;;;;22.38;16.33;;;5.80;1.00;;;;;;5060881;28;20055;-81
2021/12/06 07:42:29;;;;;;;19.63;14.73;;;5.80;1.00;;;;;;5060196;28;20075;-79
2021/12/06 07:44:57;;;;;;;22.17;16.33;;;5.70;1.00;;;;;;5053978;28;20057;-81
2021/12/06 07:47:25;;;;;;;18.25;14.88;;;5.70;1.00;;;;;;5056613;28;20021;-81
2021/12/06 07:49:52;;;;;;;21.63;16.90;;;5.70;1.00;;;;;;5054854;28;20055;-82
2021/12/06 07:52:20;;;;;;;22.58;17.83;;;5.70;1.00;;;;;;5055456;28;20075;-79
2021/12/06 07:54:48;;;;;;;25.60;19.63;;;5.70;1.00;;;;;;5047058;28;20037;-79
2021/12/06 07:57:16;;;;;;;31.08;22.27;;;5.60;1.00;;;;;;5048489;28;20460;-80
2021/12/06 07:59:44;;;;;;;26.00;20.17;;;5.70;1.00;;;;;;5050693;28;20439;-82
2021/12/06 08:02:11;;;;;;;27.92;21.13;;;5.70;1.00;;;;;;5048477;28;20072;-81
2021/12/06 08:04:39;;;;;;;31.73;22.50;;;5.60;1.00;;;;;;5047386;28;20097;-79
2021/12/06 08:07:07;;;;;;;27.13;21.70;;;5.50;1.00;;;;;;5045730;28;20045;-81
2021/12/06 08:09:34;;;;;;;30.48;23.20;;;5.50;1.00;;;;;;5049093;28;20040;-78
2021/12/06 08:12:02;;;;;;;27.25;21.88;;;5.30;99.90;;;;;;5056789;28;20029;-78
2021/12/06 08:14:31;;;;;;;32.42;23.20;;;5.40;99.90;;;;;;5052050;28;20045;-79
2021/12/06 08:16:58;;;;;;;30.77;23.10;;;5.50;1.00;;;;;;5065455;28;20045;-81
2021/12/06 08:19:26;;;;;;;33.75;25.50;;;5.50;99.90;;;;;;5052149;28;20059;-82
2021/12/06 08:21:53;;;;;;;31.08;23.63;;;5.50;99.90;;;;;;5044068;28;20452;-80
2021/12/06 08:24:21;;;;;;;30.38;23.35;;;5.50;1.00;;;;;;5028486;28;20122;-81
2021/12/06 08:26:48;;;;;;;30.67;25.10;;;5.40;1.00;;;;;;5025223;28;20056;-82
2021/12/06 08:29:16;;;;;;;32.33;25.58;;;5.40;99.90;;;;;;5043611;28;20042;-81
2021/12/06 08:31:46;;;;;;;32.25;25.83;;;5.30;1.00;;;;;;5043329;28;20045;-82
2021/12/06 08:34:14;;;;;;;32.97;24.48;;;5.30;99.90;;;;;;5045553;28;20412;-82
2021/12/06 08:36:42;;;;;;;36.83;27.60;;;5.10;99.90;;;;;;5040818;28;20068;-80
2021/12/06 08:39:11;;;;;;;45.95;33.47;;;5.20;1.00;;;;;;5058553;28;20453;-79
2021/12/06 08:41:39;;;;;;;40.55;31.23;;;5.30;1.00;;;;;;5036387;28;20125;-79
2021/12/06 08:44:06;;;;;;;38.40;29.45;;;5.20;73.90;;;;;;5034594;28;20125;-78
2021/12/06 08:46:37;;;;;;;39.63;29.35;;;5.30;99.90;;;;;;5035205;28;20068;-80
2021/12/06 08:49:08;;;;;;;38.22;30.15;;;5.40;99.90;;;;;;5034647;28;20508;-79
2021/12/06 08:51:40;;;;;;;40.00;29.85;;;5.40;1.00;;;;;;5034224;28;20119;-83
2021/12/06 08:54:10;;;;;;;46.25;31.85;;;5.40;99.90;;;;;;5039746;28;20413;-78
2021/12/06 08:56:38;;;;;;;43.65;32.38;;;5.30;99.90;;;;;;5039277;28;20497;-77
2021/12/06 08:59:06;;;;;;;42.30;31.15;;;5.20;1.00;;;;;;5040601;28;20112;-79
2021/12/06 09:01:38;;;;;;;40.72;30.33;;;5.20;1.00;;;;;;5035839;28;20056;-80
2021/12/06 09:04:11;;;;;;;37.28;28.63;;;5.20;99.90;;;;;;5031080;28;20041;-78
2021/12/06 09:06:39;;;;;;;40.08;29.38;;;5.20;1.00;;;;;;5037454;28;20053;-79
2021/12/06 09:09:09;;;;;;;39.60;28.90;;;5.20;1.00;;;;;;5043760;28;20050;-79
2021/12/06 09:11:41;;;;;;;39.15;29.35;;;5.30;1.00;;;;;;5037333;28;20057;-82
2021/12/06 09:14:15;;;;;;;49.40;35.60;;;5.30;99.90;;;;;;5036656;28;20038;-78
2021/12/06 09:16:45;;;;;;;41.65;31.80;;;5.20;99.90;;;;;;5050867;28;20499;-80
2021/12/06 09:19:15;;;;;;;43.08;31.98;;;5.20;1.00;;;;;;5036726;28;20056;-78
2021/12/06 09:21:45;;;;;;;42.80;32.60;;;5.30;1.00;;;;;;5036746;28;20445;-78
2021/12/06 09:24:15;;;;;;;45.50;32.33;;;5.40;1.00;;;;;;5038074;28;20053;-77
2021/12/06 09:26:43;;;;;;;36.20;27.48;;;5.50;1.00;;;;;;5034573;28;20056;-79
2021/12/06 09:29:11;;;;;;;39.75;29.27;;;5.50;99.90;;;;;;5034966;28;20040;-79
2021/12/06 09:31:39;;;;;;;37.15;28.00;;;5.40;1.00;;;;;;5035690;28;20497;-78
2021/12/06 09:34:08;;;;;;;39.00;29.00;;;5.30;1.00;;;;;;5036638;28;20040;-78
2021/12/06 09:36:36;;;;;;;36.78;27.48;;;5.20;1.00;;;;;;5035308;28;20038;-79
2021/12/06 09:39:05;;;;;;;36.75;27.00;;;5.10;1.00;;;;;;5035409;28;20121;-79
2021/12/06 09:41:33;;;;;;;40.83;31.25;;;5.10;7.20;;;;;;5037291;28;20049;-80
2021/12/06 09:44:03;;;;;;;35.15;27.27;;;5.00;82.30;;;;;;5050950;28;20049;-79
2021/12/06 09:46:35;;;;;;;37.53;28.25;;;5.00;99.90;;;;;;5049695;28;20511;-80
2021/12/06 09:49:10;;;;;;;33.58;26.60;;;5.00;99.90;;;;;;5060196;28;20531;-79
2021/12/06 09:51:41;;;;;;;32.58;24.42;;;5.00;99.90;;;;;;5046140;28;20072;-80
2021/12/06 09:54:10;;;;;;;35.80;27.23;;;5.00;99.90;;;;;;5065804;28;20092;-80
2021/12/06 09:56:41;;;;;;;36.17;27.02;;;4.90;99.90;;;;;;5066644;28;20102;-80
2021/12/06 09:59:12;;;;;;;38.90;28.38;;;5.00;1.00;;;;;;5049510;28;20116;-81
2021/12/06 10:01:47;;;;;;;39.28;29.52;;;5.00;1.00;;;;;;5068799;28;20041;-81
2021/12/06 10:04:16;;;;;;;39.95;29.60;;;4.90;1.00;;;;;;5064801;28;20033;-81
2021/12/06 10:06:47;;;;;;;36.72;27.75;;;4.80;99.90;;;;;;5045421;28;20048;-82
2021/12/06 10:09:16;;;;;;;42.53;31.95;;;4.90;1.00;;;;;;5044857;28;20045;-80
2021/12/06 10:11:44;;;;;;;47.25;35.85;;;4.90;1.00;;;;;;5054800;28;20477;-83
2021/12/06 10:14:12;;;;;;;46.67;30.40;;;5.00;1.00;;;;;;5062270;28;20039;-79
2021/12/06 10:16:41;;;;;;;36.72;27.67;;;5.00;1.00;;;;;;5064434;28;20067;-82
2021/12/06 10:19:12;;;;;;;35.80;26.92;;;5.00;1.00;;;;;;5061907;28;20045;-81
2021/12/06 10:21:40;;;;;;;29.40;23.35;;;5.10;1.00;;;;;;5061513;28;20045;-80
2021/12/06 10:24:13;;;;;;;30.90;24.58;;;5.20;1.00;;;;;;5061326;28;20045;-81
2021/12/06 10:26:41;;;;;;;32.63;25.02;;;5.30;1.00;;;;;;5060985;28;20487;-81
2021/12/06 10:29:19;;;;;;;38.47;28.08;;;5.30;99.90;;;;;;5043496;28;20068;-81
2021/12/06 10:31:47;;;;;;;;;;;5.40;99.90;;;;;;5061661;28;20049;-82
2021/12/06 10:34:17;;;;;;;39.55;26.40;;;5.40;1.00;;;;;;5061758;28;19932;-80
2021/12/06 10:36:44;;;;;;;36.05;26.35;;;5.30;1.00;;;;;;5062640;28;20045;-81
2021/12/06 10:39:13;;;;;;;37.70;26.77;;;5.30;1.00;;;;;;5045757;28;20049;-80
2021/12/06 10:41:41;;;;;;;38.00;27.00;;;5.30;99.90;;;;;;5045433;28;20095;-82
2021/12/06 10:44:11;;;;;;;32.10;23.48;;;5.30;1.00;;;;;;5044417;28;20128;-80
2021/12/06 10:46:41;;;;;;;37.08;23.92;;;5.30;99.90;;;;;;5044728;28;20488;-80
2021/12/06 10:49:13;;;;;;;31.65;25.13;;;5.30;99.90;;;;;;5062224;28;20039;-80
2021/12/06 10:51:40;;;;;;;30.67;24.05;;;5.30;99.90;;;;;;5059059;28;20136;-80
2021/12/06 10:54:16;;;;;;;36.40;25.75;;;5.40;99.90;;;;;;5066794;28;20041;-80
2021/12/06 10:56:48;;;;;;;39.28;28.55;;;5.50;99.90;;;;;;5064980;28;20052;-82
2021/12/06 10:59:17;;;;;;;41.63;30.63;;;5.60;20.40;;;;;;5062209;28;20447;-81
2021/12/06 11:01:48;;;;;;;42.70;30.73;;;5.60;1.00;;;;;;5044662;28;20103;-81
2021/12/06 11:04:20;;;;;;;40.42;29.77;;;5.70;1.00;;;;;;5067733;28;20092;-80
2021/12/06 11:06:54;;;;;;;42.00;30.05;;;5.70;1.00;;;;;;5042506;28;20049;-82
2021/12/06 11:09:24;;;;;;;38.20;26.40;;;5.70;99.90;;;;;;5059542;28;20045;-81
2021/12/06 11:11:57;;;;;;;35.15;27.15;;;5.80;99.90;;;;;;5057703;28;20053;-78
2021/12/06 11:14:29;;;;;;;35.90;26.75;;;5.90;1.00;;;;;;5057372;28;20036;-80
2021/12/06 11:16:59;;;;;;;36.55;27.50;;;5.90;1.00;;;;;;5059111;28;20045;-81
2021/12/06 11:19:29;;;;;;;34.03;24.08;;;5.80;1.00;;;;;;5060341;28;20045;-79
2021/12/06 11:21:59;;;;;;;34.63;24.13;;;5.90;1.00;;;;;;5058925;28;20045;-82
2021/12/06 11:24:29;;;;;;;31.63;24.88;;;5.90;1.00;;;;;;5060157;28;20082;-81
2021/12/06 11:27:02;;;;;;;31.92;24.20;;;5.90;1.00;;;;;;5058700;28;20076;-81
2021/12/06 11:29:33;;;;;;;32.85;25.98;;;5.90;99.90;;;;;;5058860;28;20061;-79
2021/12/06 11:32:06;;;;;;;33.97;25.85;;;5.90;99.90;;;;;;5060134;28;20041;-83
2021/12/06 11:34:38;;;;;;;36.00;27.73;;;5.80;99.90;;;;;;5059242;28;20453;-78
2021/12/06 11:37:13;;;;;;;43.08;30.90;;;5.80;99.90;;;;;;5040077;28;20048;-80
2021/12/06 11:39:41;;;;;;;39.97;30.52;;;5.80;99.90;;;;;;5056099;28;20072;-80
2021/12/06 11:42:10;;;;;;;40.20;30.58;;;5.80;99.90;;;;;;5040835;28;20041;-80
2021/12/06 11:44:42;;;;;;;45.42;33.75;;;5.90;1.00;;;;;;5039249;28;20063;-80
2021/12/06 11:47:12;;;;;;;34.53;24.10;;;5.90;1.00;;;;;;5040572;28;20045;-81
2021/12/06 11:49:42;;;;;;;29.02;20.75;;;5.90;1.00;;;;;;5040678;28;20497;-82
2021/12/06 11:52:13;;;;;;;23.55;16.30;;;5.90;1.00;;;;;;5057701;28;20037;-80
2021/12/06 11:54:46;;;;;;;21.48;16.17;;;5.90;1.00;;;;;;5057436;28;20037;-81
2021/12/06 11:57:22;;;;;;;20.42;14.55;;;5.90;99.90;;;;;;5042650;28;20079;-80
2021/12/06 11:59:54;;;;;;;29.33;20.88;;;5.90;99.90;;;;;;5038102;28;20045;-80
2021/12/06 12:02:39;;;;;;;28.13;19.83;;;5.90;99.90;;;;;;5038307;28;20056;-82
2021/12/06 12:05:12;;;;;;;22.88;17.50;;;5.90;99.90;;;;;;5048759;28;20048;-82
2021/12/06 12:08:01;;;;;;;18.30;15.00;;;6.00;99.90;;;;;;5058024;28;20051;-79
2021/12/06 12:10:36;;;;;;;20.50;15.80;;;6.00;99.90;;;;;;5057863;28;20051;-81
2021/12/06 12:13:06;;;;;;;21.10;14.88;;;6.00;99.90;;;;;;5054311;28;20037;-80
2021/12/06 12:15:33;;;;;;;21.73;17.00;;;6.00;99.90;;;;;;5053979;28;20056;-81
2021/12/06 12:18:01;;;;;;;20.40;16.17;;;5.90;50.60;;;;;;5050145;28;20041;-78
2021/12/06 12:20:30;;;;;;;20.58;14.80;;;5.80;99.90;;;;;;5041606;28;20037;-79
2021/12/06 12:23:04;;;;;;;16.77;13.73;;;5.70;99.90;;;;;;5025419;28;20041;-79
2021/12/06 12:25:35;;;;;;;19.15;14.05;;;5.60;70.90;;;;;;5027204;28;20488;-79
2021/12/06 12:28:16;;;;;;;16.38;13.02;;;5.60;99.90;;;;;;5056010;28;20045;-79
2021/12/06 12:30:44;;;;;;;18.92;15.25;;;5.70;99.90;;;;;;5055939;28;20048;-78
2021/12/06 12:33:13;;;;;;;21.10;16.05;;;5.80;99.90;;;;;;5056182;28;20120;-78
2021/12/06 12:35:42;;;;;;;21.08;16.02;;;5.80;24.50;;;;;;5057931;28;20041;-79
2021/12/06 12:38:12;;;;;;;17.42;14.07;;;5.70;1.00;;;;;;5056092;28;20037;-79
2021/12/06 12:40:43;;;;;;;17.98;14.25;;;5.70;68.20;;;;;;5057172;28;20465;-79
2021/12/06 12:43:14;;;;;;;22.17;16.13;;;5.70;99.90;;;;;;5057219;28;20036;-79
2021/12/06 12:45:44;;;;;;;19.02;14.95;;;5.70;99.90;;;;;;5040958;28;20076;-79
2021/12/06 12:48:15;;;;;;;25.33;17.42;;;5.60;99.90;;;;;;5071188;28;20056;-80
2021/12/06 12:51:00;;;;;;;23.02;17.20;;;5.70;1.00;;;;;;5057101;28;20493;-83
2021/12/06 12:53:28;;;;;;;19.77;15.10;;;5.70;1.00;;;;;;5059548;28;20033;-80
2021/12/06 12:55:55;;;;;;;19.98;16.98;;;5.70;99.90;;;;;;5049938;28;20139;-80
2021/12/06 12:58:26;;;;;;;19.73;14.88;;;5.60;99.90;;;;;;5055705;28;20109;-79
2021/12/06 13:00:58;;;;;;;20.52;15.43;;;5.60;99.90;;;;;;5053143;28;20044;-86
2021/12/06 13:03:38;;;;;;;19.50;15.02;;;5.60;1.00;;;;;;5069685;28;20044;-84